createdAt,value
2018-08-07T00:00:21.313Z,98116.31
2018-08-07T00:02:51.059Z,98111.98
2018-08-07T00:05:19.573Z,98113.00
2018-08-07T00:07:50.555Z,98115.89
2018-08-07T00:10:20.401Z,98105.83
2018-08-07T00:12:49.040Z,98099.02
2018-08-07T00:15:17.630Z,98104.57
2018-08-07T00:17:46.126Z,98096.56
2018-08-07T00:20:16.169Z,98100.91
2018-08-07T00:22:46.085Z,98101.95
2018-08-07T00:25:15.327Z,98099.78
2018-08-07T00:27:44.374Z,98099.89
2018-08-07T00:30:15.226Z,98100.55
2018-08-07T00:32:44.085Z,98099.45
2018-08-07T00:35:19.379Z,98100.61
2018-08-07T00:37:48.499Z,98092.68
2018-08-07T00:40:18.191Z,98096.84
2018-08-07T00:42:47.039Z,98086.36
2018-08-07T00:45:17.760Z,98079.08
2018-08-07T00:47:46.384Z,98081.36
2018-08-07T00:50:17.477Z,98076.08
2018-08-07T00:52:47.039Z,98082.83
2018-08-07T00:55:16.420Z,98083.59
2018-08-07T00:57:45.056Z,98092.81
2018-08-07T01:00:14.587Z,98092.30
2018-08-07T01:02:45.887Z,98088.83
2018-08-07T01:05:16.309Z,98095.13
2018-08-07T01:07:44.918Z,98092.12
2018-08-07T01:10:15.768Z,98092.28
2018-08-07T01:12:44.462Z,98087.72
2018-08-07T01:15:16.486Z,98092.73
2018-08-07T01:17:45.932Z,98099.09
2018-08-07T01:20:16.005Z,98087.25
2018-08-07T01:22:45.132Z,98087.94
2018-08-07T01:25:17.998Z,98091.76
2018-08-07T01:27:46.472Z,98088.95
2018-08-07T01:30:17.324Z,98087.84
2018-08-07T01:32:45.824Z,98087.57
2018-08-07T01:35:14.278Z,98081.52
2018-08-07T01:37:42.826Z,98092.00
2018-08-07T01:40:12.624Z,98096.51
2018-08-07T01:42:41.915Z,98101.81
2018-08-07T01:45:11.517Z,98103.68
2018-08-07T01:47:40.544Z,98098.07
2018-08-07T01:50:11.161Z,98098.31
2018-08-07T01:52:39.687Z,98108.88
2018-08-07T01:55:10.267Z,98103.61
2018-08-07T01:57:38.882Z,98100.59
2018-08-07T02:00:11.233Z,98096.58
2018-08-07T02:02:39.738Z,98098.74
2018-08-07T02:05:10.470Z,98097.34
2018-08-07T02:07:38.980Z,98096.13
2018-08-07T02:10:10.320Z,98103.20
2018-08-07T02:12:38.857Z,98101.92
2018-08-07T02:15:08.335Z,98107.28
2018-08-07T02:17:36.797Z,98111.04
2018-08-07T02:20:07.046Z,98109.42
2018-08-07T02:22:36.099Z,98108.16
2018-08-07T02:25:06.130Z,98104.32
2018-08-07T02:27:34.624Z,98107.88
2018-08-07T02:30:03.136Z,98101.30
2018-08-07T02:32:31.584Z,98101.45
2018-08-07T02:35:00.038Z,98104.78
2018-08-07T02:37:28.510Z,98107.59
2018-08-07T02:39:57.198Z,98113.48
2018-08-07T02:42:25.811Z,98117.38
2018-08-07T02:44:54.295Z,98123.93
2018-08-07T02:47:22.864Z,98112.80
2018-08-07T02:49:51.515Z,98114.77
2018-08-07T02:52:20.002Z,98117.66
2018-08-07T02:54:48.698Z,98114.69
2018-08-07T02:57:17.420Z,98118.16
2018-08-07T02:59:45.856Z,98114.30
2018-08-07T03:02:14.414Z,98111.13
2018-08-07T03:04:42.887Z,98110.78
2018-08-07T03:07:11.359Z,98109.84
2018-08-07T03:09:39.933Z,98105.16
2018-08-07T03:12:08.617Z,98109.45
2018-08-07T03:14:37.072Z,98103.14
2018-08-07T03:17:06.547Z,98107.89
2018-08-07T03:19:35.027Z,98115.64
2018-08-07T03:22:03.504Z,98118.93
2018-08-07T03:24:31.987Z,98112.36
2018-08-07T03:27:00.484Z,98119.14
2018-08-07T03:29:28.907Z,98121.11
2018-08-07T03:31:57.337Z,98122.45
2018-08-07T03:34:25.829Z,98122.19
2018-08-07T03:36:54.380Z,98119.08
2018-08-07T03:39:22.887Z,98126.47
2018-08-07T03:41:51.371Z,98120.43
2018-08-07T03:44:19.830Z,98113.69
2018-08-07T03:46:48.319Z,98121.54
2018-08-07T03:49:16.856Z,98123.09
2018-08-07T03:51:45.283Z,98124.09
2018-08-07T03:54:13.799Z,98125.92
2018-08-07T03:56:42.288Z,98133.24
2018-08-07T03:59:10.887Z,98139.84
2018-08-07T04:01:39.239Z,98092.81
2018-08-07T04:04:07.975Z,98148.50
2018-08-07T04:06:36.424Z,98143.01
2018-08-07T04:09:12.010Z,98144.45
2018-08-07T04:11:40.814Z,98149.12
2018-08-07T04:14:10.367Z,98158.51
2018-08-07T04:16:43.262Z,98156.94
2018-08-07T04:19:12.262Z,98154.47
2018-08-07T04:21:40.780Z,98156.63
2018-08-07T04:24:09.215Z,98157.14
2018-08-07T04:26:37.688Z,98162.73
2018-08-07T04:29:07.467Z,98161.80
2018-08-07T04:31:36.219Z,98163.91
2018-08-07T04:34:04.689Z,98164.12
2018-08-07T04:36:33.479Z,98167.64
2018-08-07T04:39:02.502Z,98169.36
2018-08-07T04:41:30.916Z,98166.34
2018-08-07T04:43:59.659Z,98169.44
2018-08-07T04:46:28.315Z,98169.88
2018-08-07T04:48:57.004Z,98163.78
2018-08-07T04:51:25.694Z,98167.70
2018-08-07T04:53:54.200Z,98170.95
2018-08-07T04:56:23.175Z,98175.89
2018-08-07T04:58:51.615Z,98192.88
2018-08-07T05:01:20.070Z,98190.11
2018-08-07T05:03:48.519Z,98198.25
2018-08-07T05:06:17.246Z,98193.04
2018-08-07T05:08:45.908Z,98187.47
2018-08-07T05:11:14.352Z,98197.61
2018-08-07T05:13:42.827Z,98191.39
2018-08-07T05:16:11.315Z,98197.20
2018-08-07T05:18:40.071Z,98203.61
2018-08-07T05:21:08.640Z,98204.06
2018-08-07T05:23:37.092Z,98202.03
2018-08-07T05:26:05.812Z,98210.18
2018-08-07T05:28:34.520Z,98202.78
2018-08-07T05:31:02.955Z,98201.82
2018-08-07T05:33:31.423Z,98204.70
2018-08-07T05:36:00.119Z,98206.16
2018-08-07T05:38:30.294Z,98208.34
2018-08-07T05:40:58.777Z,98206.91
2018-08-07T05:43:27.247Z,98200.44
2018-08-07T05:45:55.707Z,98204.03
2018-08-07T05:48:24.185Z,98205.15
2018-08-07T05:50:53.354Z,98210.78
2018-08-07T05:53:21.511Z,98204.23
2018-08-07T05:55:50.178Z,98204.55
2018-08-07T05:58:18.690Z,98210.41
2018-08-07T06:00:47.144Z,98206.08
2018-08-07T06:03:15.811Z,98202.69
2018-08-07T06:05:44.253Z,98206.53
2018-08-07T06:08:12.883Z,98203.79
2018-08-07T06:10:41.383Z,98202.41
2018-08-07T06:13:10.145Z,98205.97
2018-08-07T06:15:38.646Z,98202.70
2018-08-07T06:18:07.752Z,98196.99
2018-08-07T06:20:36.273Z,98198.47
2018-08-07T06:23:04.789Z,98194.83
2018-08-07T06:25:33.301Z,98197.31
2018-08-07T06:28:01.779Z,98196.45
2018-08-07T06:30:31.169Z,98196.36
2018-08-07T06:32:59.643Z,98195.14
2018-08-07T06:35:28.178Z,98198.88
2018-08-07T06:37:56.602Z,98198.48
2018-08-07T06:40:25.107Z,98206.08
2018-08-07T06:42:53.563Z,98204.88
2018-08-07T06:45:22.017Z,98201.03
2018-08-07T06:47:50.459Z,98202.70
2018-08-07T06:50:20.554Z,98204.52
2018-08-07T06:52:50.124Z,98198.40
2018-08-07T06:55:18.563Z,98194.56
2018-08-07T06:57:47.038Z,98193.45
2018-08-07T07:00:22.255Z,98193.55
2018-08-07T07:02:50.867Z,98188.34
2018-08-07T07:05:19.693Z,98184.46
2018-08-07T07:07:48.156Z,98188.13
2018-08-07T07:10:16.938Z,98188.61
2018-08-07T07:12:46.184Z,98184.85
2018-08-07T07:15:15.691Z,98189.47
2018-08-07T07:17:45.524Z,98190.03
2018-08-07T07:20:15.477Z,98182.98
2018-08-07T07:22:45.396Z,98185.14
2018-08-07T07:25:13.928Z,98180.69
2018-08-07T07:27:42.744Z,98187.17
2018-08-07T07:30:17.683Z,98184.92
2018-08-07T07:32:47.302Z,98182.55
2018-08-07T07:35:16.589Z,98175.86
2018-08-07T07:37:45.123Z,98177.20
2018-08-07T07:40:13.996Z,98177.03
2018-08-07T07:42:42.450Z,98174.81
2018-08-07T07:45:14.293Z,98176.31
2018-08-07T07:47:43.700Z,98178.02
2018-08-07T07:50:15.752Z,98169.16
2018-08-07T07:52:44.871Z,98167.02
2018-08-07T07:55:14.518Z,98170.38
2018-08-07T07:57:43.040Z,98168.19
2018-08-07T08:00:14.475Z,98162.28
2018-08-07T08:02:42.947Z,98168.52
2018-08-07T08:05:11.391Z,98162.70
2018-08-07T08:07:40.319Z,98168.29
2018-08-07T08:10:09.991Z,98169.22
2018-08-07T08:12:39.858Z,98178.63
2018-08-07T08:15:14.496Z,98173.99
2018-08-07T08:17:44.167Z,98173.27
2018-08-07T08:20:14.719Z,98176.90
2018-08-07T08:22:43.496Z,98170.95
2018-08-07T08:25:12.205Z,98170.25
2018-08-07T08:27:41.179Z,98164.78
2018-08-07T08:30:14.048Z,98165.66
2018-08-07T08:32:42.938Z,98168.14
2018-08-07T08:35:13.325Z,98166.37
2018-08-07T08:37:42.392Z,98171.87
2018-08-07T08:40:20.110Z,98168.27
2018-08-07T08:42:48.615Z,98169.53
2018-08-07T08:45:19.204Z,98157.44
2018-08-07T08:47:49.249Z,98160.35
2018-08-07T08:50:18.887Z,98159.92
2018-08-07T08:52:47.398Z,98154.39
2018-08-07T08:55:15.896Z,98154.83
2018-08-07T08:57:45.022Z,98146.94
2018-08-07T09:00:22.763Z,98145.36
2018-08-07T09:02:51.534Z,98150.83
2018-08-07T09:05:19.997Z,98149.45
2018-08-07T09:07:48.464Z,98154.00
2018-08-07T09:10:21.447Z,98142.80
2018-08-07T09:12:50.690Z,98146.47
2018-08-07T09:15:19.543Z,98147.63
2018-08-07T09:17:48.430Z,98143.61
2018-08-07T09:20:20.813Z,98143.82
2018-08-07T09:22:49.813Z,98144.92
2018-08-07T09:25:19.146Z,98147.95
2018-08-07T09:27:47.574Z,98145.50
2018-08-07T09:30:21.423Z,98148.30
2018-08-07T09:32:50.640Z,98143.81
2018-08-07T09:35:20.033Z,98137.61
2018-08-07T09:37:48.587Z,98136.66
2018-08-07T09:40:18.756Z,98132.99
2018-08-07T09:42:48.721Z,98119.75
2018-08-07T09:45:20.632Z,98122.53
2018-08-07T09:47:52.003Z,98121.81
2018-08-07T09:50:21.608Z,98123.71
2018-08-07T09:52:50.356Z,98123.38
2018-08-07T09:55:19.067Z,98115.48
2018-08-07T09:57:47.827Z,98111.66
2018-08-07T10:00:25.555Z,98106.70
2018-08-07T10:02:56.685Z,98109.53
2018-08-07T10:05:26.892Z,98107.95
2018-08-07T10:07:55.199Z,98111.53
2018-08-07T10:10:24.227Z,98109.91
2018-08-07T10:12:52.691Z,98094.80
2018-08-07T10:15:21.444Z,98099.50
2018-08-07T10:17:49.929Z,98104.38
2018-08-07T10:20:18.418Z,98103.97
2018-08-07T10:22:47.009Z,98093.30
2018-08-07T10:25:16.964Z,98083.02
2018-08-07T10:27:46.368Z,98082.48
2018-08-07T10:30:16.457Z,98083.27
2018-08-07T10:32:44.977Z,98084.22
2018-08-07T10:35:14.244Z,98075.02
2018-08-07T10:37:43.664Z,98077.61
2018-08-07T10:40:21.862Z,98070.53
2018-08-07T10:42:50.469Z,98070.13
2018-08-07T10:45:20.664Z,98066.81
2018-08-07T10:47:49.251Z,98048.78
2018-08-07T10:50:20.699Z,98052.47
2018-08-07T10:52:49.616Z,98049.84
2018-08-07T10:55:18.875Z,98053.89
2018-08-07T10:57:48.949Z,98053.31
2018-08-07T11:00:23.460Z,98050.36
2018-08-07T11:02:52.688Z,98053.10
2018-08-07T11:05:21.747Z,98047.48
2018-08-07T11:07:50.328Z,98046.37
2018-08-07T11:10:19.119Z,98041.22
2018-08-07T11:12:47.588Z,98037.73
2018-08-07T11:15:19.715Z,98034.79
2018-08-07T11:17:48.923Z,98032.45
2018-08-07T11:20:17.743Z,98033.88
2018-08-07T11:22:47.724Z,98032.42
2018-08-07T11:25:17.597Z,98032.28
2018-08-07T11:27:46.132Z,98035.49
2018-08-07T11:30:19.770Z,98024.19
2018-08-07T11:32:48.835Z,98023.73
2018-08-07T11:35:17.918Z,98020.09
2018-08-07T11:37:49.008Z,98020.28
2018-08-07T11:40:19.347Z,98013.21
2018-08-07T11:42:48.887Z,98014.17
2018-08-07T11:45:18.849Z,98007.36
2018-08-07T11:47:47.545Z,98003.66
2018-08-07T11:50:17.834Z,98005.07
2018-08-07T11:52:46.800Z,98001.38
2018-08-07T11:55:16.716Z,97997.53
2018-08-07T11:57:46.140Z,98000.47
2018-08-07T12:00:21.190Z,97997.31
2018-08-07T12:02:49.979Z,97996.07
2018-08-07T12:05:18.782Z,97995.03
2018-08-07T12:07:47.447Z,97999.97
2018-08-07T12:10:17.403Z,98002.32
2018-08-07T12:12:46.369Z,97999.09
2018-08-07T12:15:17.128Z,98000.92
2018-08-07T12:17:45.752Z,97991.83
2018-08-07T12:20:14.397Z,97993.71
2018-08-07T12:22:43.290Z,97989.42
2018-08-07T12:25:13.463Z,97988.44
2018-08-07T12:27:41.970Z,97980.80
2018-08-07T12:30:16.054Z,97986.80
2018-08-07T12:32:44.781Z,97993.00
2018-08-07T12:35:13.292Z,97983.34
2018-08-07T12:37:41.908Z,97975.95
2018-08-07T12:40:15.902Z,97983.08
2018-08-07T12:42:44.802Z,97978.60
2018-08-07T12:45:13.374Z,97982.95
2018-08-07T12:47:42.696Z,97971.28
2018-08-07T12:50:12.393Z,97973.55
2018-08-07T12:52:40.904Z,97969.00
2018-08-07T12:55:11.815Z,97955.30
2018-08-07T12:57:40.334Z,97953.63
2018-08-07T13:00:14.880Z,97951.16
2018-08-07T13:02:43.810Z,97949.66
2018-08-07T13:05:12.319Z,97936.69
2018-08-07T13:07:40.975Z,97931.73
2018-08-07T13:10:14.428Z,97920.34
2018-08-07T13:12:43.891Z,97929.38
2018-08-07T13:15:14.265Z,97922.03
2018-08-07T13:17:43.189Z,97926.56
2018-08-07T13:20:12.025Z,97921.30
2018-08-07T13:22:41.612Z,97918.33
2018-08-07T13:25:13.080Z,97920.38
2018-08-07T13:27:41.598Z,97918.29
2018-08-07T13:30:15.291Z,97913.97
2018-08-07T13:32:43.808Z,97909.55
2018-08-07T13:35:12.721Z,97919.27
2018-08-07T13:37:42.345Z,97919.90
2018-08-07T13:40:13.491Z,97923.47
2018-08-07T13:42:41.986Z,97920.68
2018-08-07T13:45:12.827Z,97917.79
2018-08-07T13:47:41.258Z,97919.20
2018-08-07T13:50:13.099Z,97913.73
2018-08-07T13:52:42.143Z,97912.86
2018-08-07T13:55:11.255Z,97909.97
2018-08-07T13:57:40.057Z,97911.44
2018-08-07T14:00:17.925Z,97912.05
2018-08-07T14:02:47.260Z,97908.37
2018-08-07T14:05:16.977Z,97910.38
2018-08-07T14:07:46.344Z,97905.96
2018-08-07T14:10:15.563Z,97905.03
2018-08-07T14:12:44.039Z,97904.33
2018-08-07T14:15:14.264Z,97908.81
2018-08-07T14:17:44.094Z,97901.75
2018-08-07T14:20:13.830Z,97904.19
2018-08-07T14:22:42.508Z,97909.50
2018-08-07T14:25:13.455Z,97910.87
2018-08-07T14:27:41.927Z,97908.05
2018-08-07T14:30:26.379Z,97902.14
2018-08-07T14:32:54.892Z,97899.50
2018-08-07T14:35:23.472Z,97896.41
2018-08-07T14:37:51.949Z,97895.70
2018-08-07T14:40:23.207Z,97891.02
2018-08-07T14:42:52.160Z,97894.81
2018-08-07T14:45:23.166Z,97894.00
2018-08-07T14:47:52.610Z,97899.34
2018-08-07T14:50:23.631Z,97898.06
2018-08-07T14:52:52.580Z,97904.34
2018-08-07T14:55:21.442Z,97891.94
2018-08-07T14:57:50.141Z,97897.66
2018-08-07T15:00:21.917Z,97892.39
2018-08-07T15:02:50.849Z,97889.27
2018-08-07T15:05:19.371Z,97885.89
2018-08-07T15:07:48.091Z,97888.84
2018-08-07T15:10:25.350Z,97888.68
2018-08-07T15:12:53.852Z,97884.94
2018-08-07T15:15:27.079Z,97882.92
2018-08-07T15:17:55.864Z,97877.09
2018-08-07T15:20:26.175Z,97876.92
2018-08-07T15:22:55.457Z,97875.08
2018-08-07T15:25:24.750Z,97880.25
2018-08-07T15:27:53.206Z,97874.58
2018-08-07T15:30:24.837Z,97878.16
2018-08-07T15:32:53.719Z,97869.61
2018-08-07T15:35:24.732Z,97855.33
2018-08-07T15:37:53.140Z,97863.92
2018-08-07T15:40:22.171Z,97865.71
2018-08-07T15:42:50.692Z,97862.48
2018-08-07T15:45:21.902Z,97870.48
2018-08-07T15:47:50.701Z,97864.09
2018-08-07T15:50:19.968Z,97859.00
2018-08-07T15:52:50.286Z,97863.14
2018-08-07T15:55:20.671Z,97864.72
2018-08-07T15:57:49.178Z,97864.15
2018-08-07T16:00:20.016Z,97870.64
2018-08-07T16:02:48.590Z,97864.03
2018-08-07T16:05:17.819Z,97870.73
2018-08-07T16:07:46.355Z,97879.99
2018-08-07T16:10:16.338Z,97886.72
2018-08-07T16:12:45.896Z,97890.59
2018-08-07T16:15:14.700Z,97892.02
2018-08-07T16:17:44.880Z,97890.05
2018-08-07T16:20:13.571Z,97888.53
2018-08-07T16:22:42.104Z,97891.34
2018-08-07T16:25:12.447Z,97893.28
2018-08-07T16:27:42.534Z,97900.34
2018-08-07T16:30:14.106Z,97906.16
2018-08-07T16:32:42.506Z,97906.14
2018-08-07T16:35:11.296Z,97901.83
2018-08-07T16:37:39.784Z,97906.01
2018-08-07T16:40:10.612Z,97905.95
2018-08-07T16:42:39.408Z,97906.89
2018-08-07T16:45:10.331Z,97899.73
2018-08-07T16:47:39.363Z,97899.43
2018-08-07T16:50:09.374Z,97893.61
2018-08-07T16:52:37.873Z,97895.20
2018-08-07T16:55:07.392Z,97884.17
2018-08-07T16:57:35.891Z,97894.73
2018-08-07T17:00:05.812Z,97892.39
2018-08-07T17:02:34.328Z,97892.57
2018-08-07T17:05:02.826Z,97895.66
2018-08-07T17:07:31.320Z,97896.36
2018-08-07T17:09:59.795Z,97899.27
2018-08-07T17:12:28.299Z,97895.08
2018-08-07T17:14:56.748Z,97906.45
2018-08-07T17:17:25.241Z,97904.37
2018-08-07T17:19:53.690Z,97899.98
2018-08-07T17:22:22.237Z,97900.81
2018-08-07T17:24:50.742Z,97900.42
2018-08-07T17:27:19.457Z,97906.39
2018-08-07T17:29:47.999Z,97903.03
2018-08-07T17:32:16.465Z,97915.28
2018-08-07T17:34:44.958Z,97936.13
2018-08-07T17:37:13.531Z,97939.99
2018-08-07T17:39:42.138Z,97937.14
2018-08-07T17:42:10.579Z,97937.53
2018-08-07T17:44:39.042Z,97935.00
2018-08-07T17:47:07.550Z,97934.36
2018-08-07T17:49:35.991Z,97932.27
2018-08-07T17:52:04.787Z,97940.72
2018-08-07T17:54:33.258Z,97933.44
2018-08-07T17:57:01.783Z,97932.25
2018-08-07T17:59:30.304Z,97933.45
2018-08-07T18:01:58.869Z,97943.80
2018-08-07T18:04:27.348Z,97944.55
2018-08-07T18:06:55.898Z,97951.97
2018-08-07T18:09:24.566Z,97954.21
2018-08-07T18:11:53.039Z,97962.47
2018-08-07T18:14:21.576Z,97969.45
2018-08-07T18:16:50.055Z,97972.13
2018-08-07T18:19:18.527Z,97976.59
2018-08-07T18:21:47.094Z,97968.09
2018-08-07T18:24:15.568Z,97972.28
2018-08-07T18:26:44.072Z,97971.56
2018-08-07T18:29:12.574Z,97966.70
2018-08-07T18:31:41.035Z,97970.38
2018-08-07T18:34:09.924Z,97965.89
2018-08-07T18:36:38.370Z,97970.73
2018-08-07T18:39:08.954Z,97968.52
2018-08-07T18:41:37.416Z,97965.48
2018-08-07T18:44:06.068Z,97963.85
2018-08-07T18:46:35.032Z,97964.60
2018-08-07T18:49:03.792Z,97962.41
2018-08-07T18:51:32.398Z,97962.86
2018-08-07T18:54:00.843Z,97955.86
2018-08-07T18:56:29.561Z,97956.14
2018-08-07T18:58:58.075Z,97959.59
2018-08-07T19:01:26.507Z,97965.27
2018-08-07T19:03:55.135Z,97965.07
2018-08-07T19:06:23.627Z,97962.00
2018-08-07T19:08:52.529Z,97959.44
2018-08-07T19:11:21.106Z,97964.05
2018-08-07T19:13:49.612Z,97972.20
2018-08-07T19:16:18.180Z,97971.31
2018-08-07T19:18:46.836Z,97967.09
2018-08-07T19:21:15.263Z,97961.95
2018-08-07T19:23:43.744Z,97960.69
2018-08-07T19:26:12.274Z,97959.51
2018-08-07T19:28:40.952Z,97956.58
2018-08-07T19:31:09.800Z,97954.69
2018-08-07T19:33:38.403Z,97945.10
2018-08-07T19:36:07.276Z,97937.61
2018-08-07T19:38:35.867Z,97928.84
2018-08-07T19:41:04.420Z,97929.48
2018-08-07T19:43:32.888Z,97932.28
2018-08-07T19:46:01.414Z,97926.33
2018-08-07T19:48:29.929Z,97924.89
2018-08-07T19:50:58.668Z,97935.69
2018-08-07T19:53:27.168Z,97950.02
2018-08-07T19:55:55.642Z,97954.91
2018-08-07T19:58:24.313Z,97957.73
2018-08-07T20:00:52.994Z,97956.55
2018-08-07T20:03:21.431Z,97963.20
2018-08-07T20:05:49.886Z,97954.70
2018-08-07T20:08:18.315Z,97964.21
2018-08-07T20:10:46.838Z,97957.78
2018-08-07T20:13:15.315Z,97956.29
2018-08-07T20:15:43.800Z,97968.11
2018-08-07T20:18:12.480Z,97968.02
2018-08-07T20:20:40.911Z,97975.18
2018-08-07T20:23:09.384Z,97973.33
2018-08-07T20:25:38.055Z,97984.02
2018-08-07T20:28:07.052Z,97985.70
2018-08-07T20:30:35.524Z,97985.00
2018-08-07T20:33:04.089Z,97987.28
2018-08-07T20:35:32.531Z,97982.12
2018-08-07T20:38:01.133Z,97983.23
2018-08-07T20:40:29.725Z,97972.87
2018-08-07T20:42:58.968Z,97980.87
2018-08-07T20:45:27.831Z,97971.33
2018-08-07T20:47:56.305Z,97981.89
2018-08-07T20:50:26.165Z,97983.79
2018-08-07T20:52:55.413Z,97983.05
2018-08-07T20:55:24.134Z,97983.98
2018-08-07T20:57:52.620Z,97993.00
2018-08-07T21:00:25.175Z,97991.97
2018-08-07T21:02:53.718Z,97992.48
2018-08-07T21:05:22.867Z,97992.27
2018-08-07T21:07:51.957Z,97987.73
2018-08-07T21:10:24.488Z,97983.37
2018-08-07T21:12:53.411Z,97985.94
2018-08-07T21:15:21.896Z,97985.94
2018-08-07T21:17:50.376Z,97990.31
2018-08-07T21:20:20.363Z,97991.38
2018-08-07T21:22:49.196Z,97987.63
2018-08-07T21:25:21.145Z,97977.36
2018-08-07T21:27:51.458Z,97984.42
2018-08-07T21:30:21.683Z,97984.38
2018-08-07T21:32:50.177Z,97987.45
2018-08-07T21:35:18.866Z,97980.53
2018-08-07T21:37:47.370Z,97973.91
2018-08-07T21:40:18.637Z,97970.27
2018-08-07T21:42:47.612Z,97972.83
2018-08-07T21:45:16.481Z,97966.11
2018-08-07T21:47:45.490Z,97970.74
2018-08-07T21:50:17.067Z,97972.96
2018-08-07T21:52:45.641Z,97981.09
2018-08-07T21:55:15.429Z,97978.53
2018-08-07T21:57:44.114Z,97973.98
2018-08-07T22:00:19.448Z,97978.11
2018-08-07T22:02:49.194Z,97975.80
2018-08-07T22:05:17.764Z,97983.52
2018-08-07T22:07:46.287Z,97981.70
2018-08-07T22:10:21.042Z,97977.91
2018-08-07T22:12:49.502Z,97977.84
2018-08-07T22:15:19.122Z,97973.85
2018-08-07T22:17:47.606Z,97977.84
2018-08-07T22:20:16.112Z,97972.45
2018-08-07T22:22:44.643Z,97980.71
2018-08-07T22:25:13.540Z,97973.03
2018-08-07T22:27:42.072Z,97971.14
2018-08-07T22:30:16.982Z,97971.81
2018-08-07T22:32:45.542Z,97964.84
2018-08-07T22:35:14.069Z,97967.23
2018-08-07T22:37:42.495Z,97963.63
2018-08-07T22:40:12.009Z,97964.91
2018-08-07T22:42:40.494Z,97963.12
2018-08-07T22:45:12.139Z,97964.25
2018-08-07T22:47:40.951Z,97959.05
2018-08-07T22:50:10.734Z,97955.59
2018-08-07T22:52:39.471Z,97955.34
2018-08-07T22:55:10.264Z,97952.92
2018-08-07T22:57:38.815Z,97951.45
2018-08-07T23:00:14.655Z,97942.35
2018-08-07T23:02:43.418Z,97940.33
2018-08-07T23:05:13.306Z,97935.47
2018-08-07T23:07:42.053Z,97929.47
2018-08-07T23:10:16.543Z,97931.38
2018-08-07T23:12:45.452Z,97929.44
2018-08-07T23:15:16.176Z,97929.66
2018-08-07T23:17:45.272Z,97923.02
2018-08-07T23:20:15.506Z,97922.06
2018-08-07T23:22:44.010Z,97929.55
2018-08-07T23:25:13.010Z,97926.06
2018-08-07T23:27:41.533Z,97920.52
2018-08-07T23:30:14.710Z,97921.69
2018-08-07T23:32:43.163Z,97925.66
2018-08-07T23:35:12.109Z,97924.84
2018-08-07T23:37:40.595Z,97924.18
2018-08-07T23:40:10.960Z,97920.25
2018-08-07T23:42:40.043Z,97927.89
2018-08-07T23:45:10.287Z,97934.04
2018-08-07T23:47:38.796Z,97941.64
2018-08-07T23:50:08.167Z,97944.38
2018-08-07T23:52:36.679Z,97947.02
2018-08-07T23:55:05.866Z,97947.91
2018-08-07T23:57:34.354Z,97948.41
